ADDS METAR Data INFO
IDs: Format: Raw Decoded Include TAF

Data at: 1529 UTC 18 Jun 2018

KJER 181453Z AUTO 22005KT 10SM OVC070 12/08 A3000 RMK AO2 SLP145 T01220078 53014
KJER 181353Z AUTO 19003KT 10SM BKN065 OVC080 11/07 A2999 RMK AO2 SLP141 T01110072
KJER 181253Z AUTO 00000KT 10SM OVC090 11/07 A2997 RMK AO2 SLP136 T01060067
KJER 181153Z AUTO 10005KT 10SM BKN085 09/07 A2996 RMK AO2 SLP133 70034 T00890067 10106 20083 51004
KJER 181053Z AUTO 13006KT 10SM CLR 09/07 A2995 RMK AO2 SLP132 T00890067
KJER 180953Z AUTO 16006KT 10SM CLR 09/07 A2995 RMK AO2 SLP129 T00890072
KJER 180853Z AUTO 12005KT 10SM CLR 09/07 A2994 RMK AO2 SLP124 T00890072 51004
KJER 180753Z AUTO 16005KT 10SM SCT050 10/08 A2994 RMK AO2 SLP119 T01000083
KJER 180653Z AUTO 13004KT 10SM CLR 10/08 A2994 RMK AO2 SLP120 T01000083 401890089
KJER 180553Z AUTO 21004KT 10SM CLR 11/08 A2993 RMK AO2 SLP114 60008 T01060083 10133 20100 50004
KJER 180453Z AUTO 00000KT 10SM CLR 11/09 A2993 RMK AO2 SLP115 T01110089
KJER 180353Z AUTO 17005KT 10SM FEW075 BKN090 OVC110 12/10 A2992 RMK AO2 RAE33 SLP113 P0000 T01170100
KJER 180253Z AUTO 00000KT 10SM -RA FEW055 BKN080 OVC095 12/10 A2992 RMK AO2 SLP114 P0001 60008 T01170100 50030
KJER 180153Z AUTO 20009KT 7SM -RA FEW050 BKN060 OVC075 12/09 A2992 RMK AO2 SLP117 P0004 T01170089
KJER 180053Z AUTO 25012G23KT 10SM -RA SCT060 SCT075 OVC085 12/08 A2987 RMK AO2 SLP102 P0003 T01220083
KJER 172353Z AUTO 26015KT 10SM -RA OVC080 13/11 A2982 RMK AO2 SLP079 P0006 60026 T01330106 10189 20128 50008
KJER 172300Z AUTO 26015KT 8SM -RA FEW043 BKN055 OVC075 13/11 A2982 RMK AO2 LTG DSNT N AND NE P0000 T01280106
KJER 172253Z AUTO 25012G16KT 4SM VCTS -RA BR BKN060 OVC075 13/11 A2983 RMK AO2 LTG DSNT NE AND E TSE05 SLP081 P0012 T01280106
KJER 172245Z AUTO 26010KT 3SM VCTS RA BR BKN065 OVC080 13/11 A2982 RMK AO2 LTG DSNT NE AND E TSE05 P0011 T01280106
KJER 172221Z AUTO 25013KT 10SM -RA SCT055 OVC080 13/11 A2981 RMK AO2 LTG DSNT N AND NE TSE05 P0004 T01280111
KJER 172211Z AUTO 26014KT 5SM VCTS -RA BR BKN055 OVC075 13/11 A2981 RMK AO2 LTG DSNT N AND NE TSE05 P0004 T01280106
KJER 172153Z AUTO 25010KT 5SM TSRA OVC060 14/11 A2982 RMK AO2 LTG DSNT N AND NE TSB23E38B39 SLP078 P0006 T01390111
KJER 172129Z AUTO 25012KT 10SM -TSRA FEW045 SCT055 OVC075 14/11 A2979 RMK AO2 LTG DSNT S TSB23 P0002 T01390106
KJER 172114Z AUTO 25012KT 10SM VCTS -RA FEW060 OVC080 14/11 A2979 RMK AO2 LTG DSNT S P0001 T01390106
KJER 172053Z AUTO 23014KT 8SM -RA SCT070 OVC095 15/11 A2979 RMK AO2 LTG DSNT SE AND S RAE07B35 SLP065 P0002 60002 T01500111 55002
KJER 171953Z AUTO 27010KT 10SM -RA FEW029 BKN090 OVC110 16/10 A2978 RMK AO2 RAB24 SLP060 P0000 T01610100
KJER 171853Z AUTO 24011KT 10SM BKN120 18/09 A2979 RMK AO2 SLP059 T01780094
KJER 171753Z AUTO 25009KT 10SM CLR 18/09 A2980 RMK AO2 SLP059 T01830089 10189 20111 58001
KJER 171653Z AUTO 24006KT 10SM CLR 17/09 A2980 RMK AO2 SLP061 T01720089
KJER 171553Z AUTO 21006KT 10SM CLR 15/09 A2980 RMK AO2 SLP063 T01500089
KJER 171453Z AUTO 23007KT 10SM CLR 13/08 A2980 RMK AO2 SLP065 T01330083 51007
KJER 171353Z AUTO 23007KT 10SM CLR 12/08 A2980 RMK AO2 SLP063 T01220078
KJER 171253Z AUTO 23005KT 10SM CLR 11/08 A2979 RMK AO2 SLP060 T01110078
KJER 171153Z AUTO 20005KT 10SM CLR 12/08 A2978 RMK AO2 SLP054 60001 70001 T01220078 10172 20122 51008
KJER 171053Z AUTO 00000KT 10SM CLR 13/08 A2977 RMK AO2 SLP049 T01330083
KJER 170953Z AUTO 26005KT 10SM CLR 13/08 A2976 RMK AO2 SLP046 T01280083
KJER 170853Z AUTO 02007KT 10SM FEW100 13/07 A2975 RMK AO2 RAE14 SLP042 P0001 60001 T01330072 57000
KJER 170753Z AUTO 01007KT 10SM -RA FEW060 BKN085 OVC100 14/08 A2975 RMK AO2 RAE11B31 SLP043 P0000 T01390083
KJER 170653Z AUTO 36012KT 10SM -RA FEW055 BKN090 OVC100 17/04 A2974 RMK AO2 RAB44 SLP038 P0000 T01670044 402440100
KJER 170553Z AUTO 36010KT 10SM BKN110 17/03 A2975 RMK AO2 SLP042 T01720033 10222 20161 52006
KJER 170453Z AUTO 36005KT 10SM BKN110 17/04 A2974 RMK AO2 SLP042 T01670044
KJER 170353Z AUTO 32006KT 10SM BKN100 OVC120 18/03 A2973 RMK AO2 SLP040 T01780033